Flight Briefing for CPX424

Departure Arrival
Miami International Airport (KMIA)
Click to view FAA NOTAMS
Tulsa International Airport (KTUL)
Click to view FAA NOTAMS
Departure Time Arrival Time
N/A N/A
Aircraft Distance
B757-200SF 1016nm
Departure METAR Arrival METAR
KMIA 180553Z 14006KT 10SM FEW030 SCT050 SCT065 24/24 A3004 RMK AO2 SLP173 T02440239 10250 20239 58002 KTUL 180553Z 35008KT 10SM CLR M04/M08 A3027 RMK AO2 SLP256 T10391083 10050 21039 400721039 51026
Suggested Route
WINCO2 WINCO CHRRI SMELZ Q116 PATOY JAWJA CABLO MEI SQS LIT


View recent IFR Routes data
Notes



Charts and Procedures

Charts for KMIA
No chart available
Charts for KTUL
No chart available

Ventusky Weather